sensor_id;sensor_type;location;lat;lon;timestamp;pressure;altitude;pressure_sealevel;temperature;humidity
55271;BME280;41132;47.162;9.470;2023-04-20T00:00:44;96275.25;;;6.76;100.00
55271;BME280;41132;47.162;9.470;2023-04-20T00:03:09;96289.38;;;6.83;100.00
55271;BME280;41132;47.162;9.470;2023-04-20T00:05:34;96279.91;;;6.92;100.00
55271;BME280;41132;47.162;9.470;2023-04-20T00:08:01;96276.50;;;6.81;100.00
55271;BME280;41132;47.162;9.470;2023-04-20T00:10:27;96275.94;;;6.78;100.00
55271;BME280;41132;47.162;9.470;2023-04-20T00:12:52;96249.59;;;6.61;100.00
55271;BME280;41132;47.162;9.470;2023-04-20T00:15:17;96270.31;;;6.73;100.00
55271;BME280;41132;47.162;9.470;2023-04-20T00:17:43;96244.78;;;6.66;100.00
55271;BME280;41132;47.162;9.470;2023-04-20T00:20:09;96251.91;;;6.74;100.00
55271;BME280;41132;47.162;9.470;2023-04-20T00:22:37;96229.66;;;6.80;100.00
55271;BME280;41132;47.162;9.470;2023-04-20T00:25:02;96246.81;;;6.82;100.00
55271;BME280;41132;47.162;9.470;2023-04-20T00:27:27;96238.84;;;6.74;100.00
55271;BME280;41132;47.162;9.470;2023-04-20T00:29:53;96235.56;;;6.62;100.00
55271;BME280;41132;47.162;9.470;2023-04-20T00:32:18;96256.28;;;6.74;100.00
55271;BME280;41132;47.162;9.470;2023-04-20T00:34:43;96254.34;;;6.85;100.00
55271;BME280;41132;47.162;9.470;2023-04-20T00:37:10;96233.94;;;6.71;100.00
55271;BME280;41132;47.162;9.470;2023-04-20T00:39:35;96201.13;;;6.39;100.00
55271;BME280;41132;47.162;9.470;2023-04-20T00:42:07;96230.47;;;6.80;100.00
55271;BME280;41132;47.162;9.470;2023-04-20T00:44:33;96217.28;;;6.72;100.00
55271;BME280;41132;47.162;9.470;2023-04-20T00:46:59;96226.91;;;6.72;100.00
55271;BME280;41132;47.162;9.470;2023-04-20T00:49:27;96226.78;;;6.73;100.00
55271;BME280;41132;47.162;9.470;2023-04-20T00:51:55;96209.78;;;6.59;100.00
55271;BME280;41132;47.162;9.470;2023-04-20T00:54:21;96214.00;;;6.80;100.00
55271;BME280;41132;47.162;9.470;2023-04-20T00:56:47;96200.84;;;6.72;100.00
55271;BME280;41132;47.162;9.470;2023-04-20T00:59:12;96193.16;;;6.70;100.00
55271;BME280;41132;47.162;9.470;2023-04-20T01:01:38;96205.13;;;6.43;100.00
55271;BME280;41132;47.162;9.470;2023-04-20T01:04:03;96204.28;;;6.33;100.00
55271;BME280;41132;47.162;9.470;2023-04-20T01:06:29;96197.00;;;6.46;100.00
55271;BME280;41132;47.162;9.470;2023-04-20T01:08:54;96200.56;;;6.65;100.00
55271;BME280;41132;47.162;9.470;2023-04-20T01:11:20;96181.09;;;6.50;100.00
55271;BME280;41132;47.162;9.470;2023-04-20T01:13:46;96191.91;;;6.74;100.00
55271;BME280;41132;47.162;9.470;2023-04-20T01:16:11;96184.50;;;6.60;100.00
55271;BME280;41132;47.162;9.470;2023-04-20T01:18:41;96202.22;;;6.66;100.00
55271;BME280;41132;47.162;9.470;2023-04-20T01:21:08;96165.19;;;6.53;100.00
55271;BME280;41132;47.162;9.470;2023-04-20T01:23:34;96165.97;;;6.82;100.00
55271;BME280;41132;47.162;9.470;2023-04-20T01:25:59;96185.44;;;6.88;100.00
55271;BME280;41132;47.162;9.470;2023-04-20T01:28:25;96164.06;;;6.65;100.00
55271;BME280;41132;47.162;9.470;2023-04-20T01:30:50;96160.22;;;6.69;100.00
55271;BME280;41132;47.162;9.470;2023-04-20T01:33:16;96171.19;;;6.63;100.00
55271;BME280;41132;47.162;9.470;2023-04-20T01:35:41;96154.75;;;6.43;100.00
55271;BME280;41132;47.162;9.470;2023-04-20T01:38:07;96152.97;;;6.43;100.00
55271;BME280;41132;47.162;9.470;2023-04-20T01:40:33;96154.06;;;6.51;100.00
55271;BME280;41132;47.162;9.470;2023-04-20T01:42:58;96159.84;;;6.54;100.00
55271;BME280;41132;47.162;9.470;2023-04-20T01:45:23;96151.75;;;6.28;100.00
55271;BME280;41132;47.162;9.470;2023-04-20T01:47:50;96161.63;;;6.44;100.00
55271;BME280;41132;47.162;9.470;2023-04-20T01:50:15;96145.44;;;6.50;100.00
55271;BME280;41132;47.162;9.470;2023-04-20T01:52:41;96134.84;;;6.42;100.00
55271;BME280;41132;47.162;9.470;2023-04-20T01:55:06;96157.34;;;6.53;100.00
55271;BME280;41132;47.162;9.470;2023-04-20T01:57:32;96143.75;;;6.49;100.00
55271;BME280;41132;47.162;9.470;2023-04-20T01:59:58;96132.69;;;6.27;100.00
55271;BME280;41132;47.162;9.470;2023-04-20T02:02:23;96141.16;;;6.39;100.00
55271;BME280;41132;47.162;9.470;2023-04-20T02:04:49;96119.78;;;6.16;100.00
55271;BME280;41132;47.162;9.470;2023-04-20T02:07:14;96125.38;;;6.31;100.00
55271;BME280;41132;47.162;9.470;2023-04-20T02:09:40;96119.78;;;6.26;100.00
55271;BME280;41132;47.162;9.470;2023-04-20T02:12:05;96138.72;;;6.28;100.00
55271;BME280;41132;47.162;9.470;2023-04-20T02:14:30;96119.09;;;6.24;100.00
55271;BME280;41132;47.162;9.470;2023-04-20T02:16:56;96116.22;;;6.07;100.00
55271;BME280;41132;47.162;9.470;2023-04-20T02:19:21;96111.16;;;6.16;100.00
55271;BME280;41132;47.162;9.470;2023-04-20T02:21:46;96125.53;;;6.20;100.00
55271;BME280;41132;47.162;9.470;2023-04-20T02:24:12;96102.09;;;6.00;100.00
55271;BME280;41132;47.162;9.470;2023-04-20T02:26:37;96108.25;;;6.28;100.00
55271;BME280;41132;47.162;9.470;2023-04-20T02:29:02;96107.25;;;6.59;100.00
55271;BME280;41132;47.162;9.470;2023-04-20T02:31:28;96086.97;;;6.53;100.00
55271;BME280;41132;47.162;9.470;2023-04-20T02:33:53;96086.97;;;6.53;100.00
55271;BME280;41132;47.162;9.470;2023-04-20T02:36:19;96103.56;;;6.42;100.00
55271;BME280;41132;47.162;9.470;2023-04-20T02:38:44;96085.22;;;6.34;100.00
55271;BME280;41132;47.162;9.470;2023-04-20T02:41:10;96091.09;;;6.36;100.00
55271;BME280;41132;47.162;9.470;2023-04-20T02:43:35;96089.16;;;6.57;100.00
55271;BME280;41132;47.162;9.470;2023-04-20T02:46:00;96066.38;;;6.40;100.00
55271;BME280;41132;47.162;9.470;2023-04-20T02:48:26;96079.28;;;6.51;100.00
55271;BME280;41132;47.162;9.470;2023-04-20T02:50:54;96075.75;;;6.33;100.00
55271;BME280;41132;47.162;9.470;2023-04-20T02:53:19;96073.00;;;6.15;100.00
55271;BME280;41132;47.162;9.470;2023-04-20T02:55:44;96068.34;;;6.28;100.00
55271;BME280;41132;47.162;9.470;2023-04-20T02:58:10;96072.19;;;6.24;100.00
55271;BME280;41132;47.162;9.470;2023-04-20T03:00:35;96054.91;;;5.94;100.00
55271;BME280;41132;47.162;9.470;2023-04-20T03:03:01;96071.06;;;6.26;100.00
55271;BME280;41132;47.162;9.470;2023-04-20T03:05:27;96080.78;;;6.54;100.00
55271;BME280;41132;47.162;9.470;2023-04-20T03:07:52;96080.66;;;6.36;100.00
55271;BME280;41132;47.162;9.470;2023-04-20T03:10:17;96063.41;;;6.25;100.00
55271;BME280;41132;47.162;9.470;2023-04-20T03:12:43;96058.19;;;6.25;100.00
55271;BME280;41132;47.162;9.470;2023-04-20T03:15:09;96053.78;;;6.35;100.00
55271;BME280;41132;47.162;9.470;2023-04-20T03:17:34;96060.75;;;6.44;100.00
55271;BME280;41132;47.162;9.470;2023-04-20T03:20:00;96050.31;;;6.44;100.00
55271;BME280;41132;47.162;9.470;2023-04-20T03:22:25;96057.34;;;6.44;100.00
55271;BME280;41132;47.162;9.470;2023-04-20T03:24:50;96060.38;;;6.39;100.00
55271;BME280;41132;47.162;9.470;2023-04-20T03:27:16;96020.19;;;6.32;100.00
55271;BME280;41132;47.162;9.470;2023-04-20T03:29:41;96034.00;;;6.42;100.00
55271;BME280;41132;47.162;9.470;2023-04-20T03:32:07;96055.13;;;6.49;100.00
55271;BME280;41132;47.162;9.470;2023-04-20T03:34:32;96046.88;;;6.54;100.00
55271;BME280;41132;47.162;9.470;2023-04-20T03:36:57;96028.69;;;6.34;100.00
55271;BME280;41132;47.162;9.470;2023-04-20T03:39:23;96052.81;;;6.46;100.00
55271;BME280;41132;47.162;9.470;2023-04-20T03:41:48;96042.84;;;6.32;100.00
55271;BME280;41132;47.162;9.470;2023-04-20T03:44:13;95998.44;;;6.14;100.00
55271;BME280;41132;47.162;9.470;2023-04-20T03:46:39;96033.19;;;6.42;100.00
55271;BME280;41132;47.162;9.470;2023-04-20T03:49:05;96036.44;;;6.54;100.00
55271;BME280;41132;47.162;9.470;2023-04-20T03:51:31;96024.59;;;6.32;100.00
55271;BME280;41132;47.162;9.470;2023-04-20T03:53:56;96021.44;;;6.28;100.00
55271;BME280;41132;47.162;9.470;2023-04-20T03:56:21;96033.19;;;6.42;100.00
55271;BME280;41132;47.162;9.470;2023-04-20T03:58:47;96027.88;;;6.24;100.00
55271;BME280;41132;47.162;9.470;2023-04-20T04:01:12;96023.78;;;6.12;100.00
55271;BME280;41132;47.162;9.470;2023-04-20T04:03:39;96006.13;;;5.96;100.00
55271;BME280;41132;47.162;9.470;2023-04-20T04:06:06;96005.84;;;5.99;100.00
55271;BME280;41132;47.162;9.470;2023-04-20T04:08:31;96029.56;;;6.05;100.00
55271;BME280;41132;47.162;9.470;2023-04-20T04:10:56;96031.59;;;6.12;100.00
55271;BME280;41132;47.162;9.470;2023-04-20T04:13:22;96025.84;;;6.08;100.00
55271;BME280;41132;47.162;9.470;2023-04-20T04:15:48;96008.41;;;6.09;100.00
55271;BME280;41132;47.162;9.470;2023-04-20T04:18:14;96013.47;;;6.20;100.00
55271;BME280;41132;47.162;9.470;2023-04-20T04:20:39;95986.50;;;5.92;100.00
55271;BME280;41132;47.162;9.470;2023-04-20T04:23:05;96029.28;;;5.99;100.00
55271;BME280;41132;47.162;9.470;2023-04-20T04:25:31;95995.69;;;5.76;100.00
55271;BME280;41132;47.162;9.470;2023-04-20T04:27:56;96016.53;;;6.05;100.00
55271;BME280;41132;47.162;9.470;2023-04-20T04:30:22;96013.75;;;6.26;100.00
55271;BME280;41132;47.162;9.470;2023-04-20T04:32:48;96001.72;;;6.06;100.00
55271;BME280;41132;47.162;9.470;2023-04-20T04:35:13;96005.13;;;5.87;100.00
55271;BME280;41132;47.162;9.470;2023-04-20T04:37:39;95985.56;;;6.02;100.00
55271;BME280;41132;47.162;9.470;2023-04-20T04:40:05;96007.34;;;6.01;100.00
55271;BME280;41132;47.162;9.470;2023-04-20T04:42:32;96012.81;;;6.18;100.00
55271;BME280;41132;47.162;9.470;2023-04-20T04:44:59;96006.22;;;6.23;100.00
55271;BME280;41132;47.162;9.470;2023-04-20T04:47:26;96013.38;;;6.12;100.00
55271;BME280;41132;47.162;9.470;2023-04-20T04:49:54;95988.69;;;5.86;100.00
55271;BME280;41132;47.162;9.470;2023-04-20T04:52:19;96004.72;;;5.92;100.00
55271;BME280;41132;47.162;9.470;2023-04-20T04:54:45;95996.63;;;5.85;100.00
55271;BME280;41132;47.162;9.470;2023-04-20T04:57:11;96025.03;;;5.98;100.00
55271;BME280;41132;47.162;9.470;2023-04-20T04:59:36;95996.91;;;5.92;100.00
55271;BME280;41132;47.162;9.470;2023-04-20T05:02:02;96006.50;;;5.91;100.00
55271;BME280;41132;47.162;9.470;2023-04-20T05:04:27;95994.59;;;5.59;100.00
55271;BME280;41132;47.162;9.470;2023-04-20T05:06:52;96013.25;;;5.84;100.00
55271;BME280;41132;47.162;9.470;2023-04-20T05:09:18;96000.63;;;5.50;100.00
55271;BME280;41132;47.162;9.470;2023-04-20T05:11:43;95965.53;;;5.44;100.00
55271;BME280;41132;47.162;9.470;2023-04-20T05:14:09;96005.00;;;5.69;100.00
55271;BME280;41132;47.162;9.470;2023-04-20T05:16:34;96005.00;;;5.79;100.00
55271;BME280;41132;47.162;9.470;2023-04-20T05:18:59;96002.81;;;5.84;100.00
55271;BME280;41132;47.162;9.470;2023-04-20T05:21:25;95996.22;;;5.90;100.00
55271;BME280;41132;47.162;9.470;2023-04-20T05:23:50;95998.00;;;5.89;100.00
55271;BME280;41132;47.162;9.470;2023-04-20T05:26:16;96010.38;;;6.06;100.00
55271;BME280;41132;47.162;9.470;2023-04-20T05:28:41;96011.69;;;6.30;100.00
55271;BME280;41132;47.162;9.470;2023-04-20T05:31:06;95995.81;;;6.04;100.00
55271;BME280;41132;47.162;9.470;2023-04-20T05:33:32;95977.72;;;5.93;100.00
55271;BME280;41132;47.162;9.470;2023-04-20T05:35:57;95999.81;;;5.89;100.00
55271;BME280;41132;47.162;9.470;2023-04-20T05:38:23;95997.75;;;5.82;100.00
55271;BME280;41132;47.162;9.470;2023-04-20T05:40:49;95997.63;;;5.84;100.00
55271;BME280;41132;47.162;9.470;2023-04-20T05:43:15;96022.00;;;5.83;100.00
55271;BME280;41132;47.162;9.470;2023-04-20T05:45:42;96020.63;;;5.89;100.00
55271;BME280;41132;47.162;9.470;2023-04-20T05:48:08;96000.06;;;5.56;100.00
55271;BME280;41132;47.162;9.470;2023-04-20T05:50:34;96005.44;;;5.84;100.00
55271;BME280;41132;47.162;9.470;2023-04-20T05:53:00;96021.03;;;5.94;100.00
55271;BME280;41132;47.162;9.470;2023-04-20T05:55:25;96005.94;;;6.17;100.00
55271;BME280;41132;47.162;9.470;2023-04-20T05:57:51;95994.31;;;5.82;100.00
55271;BME280;41132;47.162;9.470;2023-04-20T06:00:16;96004.91;;;6.00;100.00
55271;BME280;41132;47.162;9.470;2023-04-20T06:02:42;96016.66;;;6.14;100.00
55271;BME280;41132;47.162;9.470;2023-04-20T06:05:08;96008.03;;;6.13;100.00
55271;BME280;41132;47.162;9.470;2023-04-20T06:07:35;96007.78;;;6.06;100.00
55271;BME280;41132;47.162;9.470;2023-04-20T06:10:00;96031.47;;;5.94;100.00
55271;BME280;41132;47.162;9.470;2023-04-20T06:12:27;96033.13;;;6.04;100.00
55271;BME280;41132;47.162;9.470;2023-04-20T06:14:54;96033.81;;;6.16;100.00
55271;BME280;41132;47.162;9.470;2023-04-20T06:17:20;96023.94;;;5.91;100.00
55271;BME280;41132;47.162;9.470;2023-04-20T06:19:45;96034.75;;;5.86;100.00
55271;BME280;41132;47.162;9.470;2023-04-20T06:22:12;96027.63;;;5.78;100.00
55271;BME280;41132;47.162;9.470;2023-04-20T06:24:37;96038.88;;;5.89;100.00
55271;BME280;41132;47.162;9.470;2023-04-20T06:27:03;96029.13;;;5.91;100.00
55271;BME280;41132;47.162;9.470;2023-04-20T06:29:28;96005.00;;;5.69;100.00
55271;BME280;41132;47.162;9.470;2023-04-20T06:31:54;96037.75;;;6.11;100.00
55271;BME280;41132;47.162;9.470;2023-04-20T06:34:20;96011.31;;;6.05;100.00
55271;BME280;41132;47.162;9.470;2023-04-20T06:36:45;96025.84;;;6.08;100.00
55271;BME280;41132;47.162;9.470;2023-04-20T06:39:10;96021.72;;;6.15;100.00
55271;BME280;41132;47.162;9.470;2023-04-20T06:41:37;95995.00;;;6.13;100.00
55271;BME280;41132;47.162;9.470;2023-04-20T06:44:03;96027.88;;;6.24;100.00
55271;BME280;41132;47.162;9.470;2023-04-20T06:46:28;96017.34;;;6.06;100.00
55271;BME280;41132;47.162;9.470;2023-04-20T06:48:54;96013.91;;;6.05;100.00
55271;BME280;41132;47.162;9.470;2023-04-20T06:51:19;96002.56;;;5.77;100.00
55271;BME280;41132;47.162;9.470;2023-04-20T06:53:44;96027.06;;;6.23;100.00
55271;BME280;41132;47.162;9.470;2023-04-20T06:56:10;96025.28;;;6.34;100.00
55271;BME280;41132;47.162;9.470;2023-04-20T06:58:36;96020.50;;;6.10;100.00
55271;BME280;41132;47.162;9.470;2023-04-20T07:01:01;95992.41;;;5.84;100.00
55271;BME280;41132;47.162;9.470;2023-04-20T07:03:27;96024.75;;;6.01;100.00
55271;BME280;41132;47.162;9.470;2023-04-20T07:05:52;96033.66;;;6.08;100.00
55271;BME280;41132;47.162;9.470;2023-04-20T07:08:17;96009.78;;;6.13;100.00
55271;BME280;41132;47.162;9.470;2023-04-20T07:10:43;96026.63;;;6.28;100.00
55271;BME280;41132;47.162;9.470;2023-04-20T07:13:08;96010.38;;;6.06;100.00
55271;BME280;41132;47.162;9.470;2023-04-20T07:15:34;96029.78;;;6.22;100.00
55271;BME280;41132;47.162;9.470;2023-04-20T07:17:59;96012.56;;;6.11;100.00
55271;BME280;41132;47.162;9.470;2023-04-20T07:20:24;96023.91;;;6.30;100.00
55271;BME280;41132;47.162;9.470;2023-04-20T07:22:50;96012.25;;;6.24;100.00
55271;BME280;41132;47.162;9.470;2023-04-20T07:25:15;95991.53;;;6.32;100.00
55271;BME280;41132;47.162;9.470;2023-04-20T07:27:42;96012.56;;;6.58;100.00
55271;BME280;41132;47.162;9.470;2023-04-20T07:30:08;95994.84;;;6.62;100.00
55271;BME280;41132;47.162;9.470;2023-04-20T07:32:35;96010.44;;;6.81;100.00
55271;BME280;41132;47.162;9.470;2023-04-20T07:35:01;95983.22;;;6.46;100.00
55271;BME280;41132;47.162;9.470;2023-04-20T07:37:28;95995.44;;;6.83;100.00
55271;BME280;41132;47.162;9.470;2023-04-20T07:39:53;95971.06;;;6.65;100.00
55271;BME280;41132;47.162;9.470;2023-04-20T07:42:19;95982.25;;;6.85;100.00
55271;BME280;41132;47.162;9.470;2023-04-20T07:44:45;95999.75;;;7.02;100.00
55271;BME280;41132;47.162;9.470;2023-04-20T07:47:11;95989.19;;;6.94;100.00
55271;BME280;41132;47.162;9.470;2023-04-20T07:49:36;95957.91;;;6.94;100.00
55271;BME280;41132;47.162;9.470;2023-04-20T07:52:03;96000.59;;;7.21;100.00
55271;BME280;41132;47.162;9.470;2023-04-20T07:54:28;95961.44;;;6.47;100.00
55271;BME280;41132;47.162;9.470;2023-04-20T07:56:53;95980.00;;;7.00;100.00
55271;BME280;41132;47.162;9.470;2023-04-20T07:59:19;95986.44;;;7.23;100.00
55271;BME280;41132;47.162;9.470;2023-04-20T08:01:45;95998.00;;;7.39;100.00
55271;BME280;41132;47.162;9.470;2023-04-20T08:04:10;95984.03;;;7.12;100.00
55271;BME280;41132;47.162;9.470;2023-04-20T08:06:36;95965.47;;;7.33;100.00
55271;BME280;41132;47.162;9.470;2023-04-20T08:09:01;95984.88;;;7.48;100.00
55271;BME280;41132;47.162;9.470;2023-04-20T08:11:28;95992.25;;;7.35;100.00
55271;BME280;41132;47.162;9.470;2023-04-20T08:13:53;95991.00;;;7.57;100.00
55271;BME280;41132;47.162;9.470;2023-04-20T08:16:19;96001.78;;;7.98;100.00
55271;BME280;41132;47.162;9.470;2023-04-20T08:18:44;95975.09;;;7.86;100.00
55271;BME280;41132;47.162;9.470;2023-04-20T08:21:10;95980.06;;;7.98;100.00
55271;BME280;41132;47.162;9.470;2023-04-20T08:23:35;95954.88;;;7.88;100.00
55271;BME280;41132;47.162;9.470;2023-04-20T08:26:02;95965.28;;;8.06;100.00
55271;BME280;41132;47.162;9.470;2023-04-20T08:28:27;95960.28;;;8.21;100.00
55271;BME280;41132;47.162;9.470;2023-04-20T08:30:53;95988.34;;;8.11;100.00
55271;BME280;41132;47.162;9.470;2023-04-20T08:33:18;95992.94;;;8.17;100.00
55271;BME280;41132;47.162;9.470;2023-04-20T08:35:43;95976.78;;;7.95;100.00
55271;BME280;41132;47.162;9.470;2023-04-20T08:38:09;95980.25;;;8.22;100.00
55271;BME280;41132;47.162;9.470;2023-04-20T08:40:35;95976.22;;;8.10;99.51
55271;BME280;41132;47.162;9.470;2023-04-20T08:43:01;95976.66;;;8.23;92.08
55271;BME280;41132;47.162;9.470;2023-04-20T08:45:27;95968.41;;;8.36;97.71
55271;BME280;41132;47.162;9.470;2023-04-20T08:47:53;95978.13;;;8.78;90.56
55271;BME280;41132;47.162;9.470;2023-04-20T08:50:19;95951.94;;;8.70;86.94
55271;BME280;41132;47.162;9.470;2023-04-20T08:52:45;95968.41;;;9.13;86.14
55271;BME280;41132;47.162;9.470;2023-04-20T08:55:15;95971.22;;;9.19;83.42
55271;BME280;41132;47.162;9.470;2023-04-20T08:57:40;95981.50;;;9.05;86.66
55271;BME280;41132;47.162;9.470;2023-04-20T09:00:07;95966.13;;;8.67;88.16
55271;BME280;41132;47.162;9.470;2023-04-20T09:02:35;95969.38;;;8.61;88.45
55271;BME280;41132;47.162;9.470;2023-04-20T09:05:03;95983.63;;;8.67;94.54
55271;BME280;41132;47.162;9.470;2023-04-20T09:07:29;95961.16;;;8.30;98.12
55271;BME280;41132;47.162;9.470;2023-04-20T09:09:59;95971.53;;;8.13;98.83
55271;BME280;41132;47.162;9.470;2023-04-20T09:12:25;95975.00;;;7.78;97.77
55271;BME280;41132;47.162;9.470;2023-04-20T09:14:51;95971.81;;;7.84;100.00
55271;BME280;41132;47.162;9.470;2023-04-20T09:17:29;95974.19;;;7.95;99.46
55271;BME280;41132;47.162;9.470;2023-04-20T09:19:55;95981.81;;;7.89;99.25
55271;BME280;41132;47.162;9.470;2023-04-20T09:22:34;95971.78;;;8.02;99.93
55271;BME280;41132;47.162;9.470;2023-04-20T09:25:11;95964.06;;;7.74;98.20
55271;BME280;41132;47.162;9.470;2023-04-20T09:27:36;95953.97;;;7.80;97.62
55271;BME280;41132;47.162;9.470;2023-04-20T09:30:02;95953.00;;;7.81;98.20
55271;BME280;41132;47.162;9.470;2023-04-20T09:32:28;95960.22;;;7.87;100.00
55271;BME280;41132;47.162;9.470;2023-04-20T09:34:54;95956.50;;;7.89;98.02
55271;BME280;41132;47.162;9.470;2023-04-20T09:37:19;95963.94;;;8.02;100.00
55271;BME280;41132;47.162;9.470;2023-04-20T09:39:47;95946.19;;;7.88;100.00
55271;BME280;41132;47.162;9.470;2023-04-20T09:42:13;95959.66;;;8.01;100.00
55271;BME280;41132;47.162;9.470;2023-04-20T09:44:39;95950.88;;;8.02;100.00
55271;BME280;41132;47.162;9.470;2023-04-20T09:47:06;95959.97;;;7.98;98.10
55271;BME280;41132;47.162;9.470;2023-04-20T09:49:31;95962.84;;;7.87;98.65
55271;BME280;41132;47.162;9.470;2023-04-20T09:52:00;95958.47;;;8.13;95.44
55271;BME280;41132;47.162;9.470;2023-04-20T09:54:27;95943.50;;;7.98;92.43
55271;BME280;41132;47.162;9.470;2023-04-20T09:56:52;95952.13;;;8.24;96.86
55271;BME280;41132;47.162;9.470;2023-04-20T09:59:20;95943.59;;;8.14;97.61
55271;BME280;41132;47.162;9.470;2023-04-20T10:01:45;95945.22;;;8.15;100.00
55271;BME280;41132;47.162;9.470;2023-04-20T10:04:11;95944.19;;;8.08;99.88
55271;BME280;41132;47.162;9.470;2023-04-20T10:06:39;95952.34;;;8.05;100.00
55271;BME280;41132;47.162;9.470;2023-04-20T10:09:06;95945.28;;;7.97;99.80
55271;BME280;41132;47.162;9.470;2023-04-20T10:11:35;95925.69;;;7.75;100.00
55271;BME280;41132;47.162;9.470;2023-04-20T10:14:24;95932.31;;;8.13;100.00
55271;BME280;41132;47.162;9.470;2023-04-20T10:17:04;95931.53;;;8.21;100.00
55271;BME280;41132;47.162;9.470;2023-04-20T10:22:06;95940.03;;;8.41;98.89
55271;BME280;41132;47.162;9.470;2023-04-20T10:24:32;95937.69;;;8.38;100.00
55271;BME280;41132;47.162;9.470;2023-04-20T10:26:58;95928.97;;;8.29;99.62
55271;BME280;41132;47.162;9.470;2023-04-20T10:29:27;95926.97;;;8.23;99.78
55271;BME280;41132;47.162;9.470;2023-04-20T10:31:54;95936.28;;;8.18;100.00
55271;BME280;41132;47.162;9.470;2023-04-20T10:34:30;95914.56;;;8.25;100.00
55271;BME280;41132;47.162;9.470;2023-04-20T10:37:06;95921.50;;;8.08;100.00
55271;BME280;41132;47.162;9.470;2023-04-20T10:39:31;95920.69;;;8.34;100.00
55271;BME280;41132;47.162;9.470;2023-04-20T10:41:57;95923.56;;;8.23;99.15
55271;BME280;41132;47.162;9.470;2023-04-20T10:44:26;95923.34;;;8.16;100.00
55271;BME280;41132;47.162;9.470;2023-04-20T10:46:52;95919.94;;;8.24;100.00
55271;BME280;41132;47.162;9.470;2023-04-20T10:49:17;95909.84;;;8.29;99.15
55271;BME280;41132;47.162;9.470;2023-04-20T10:51:49;95920.44;;;8.45;100.00
55271;BME280;41132;47.162;9.470;2023-04-20T10:54:15;95910.50;;;8.31;99.06
55271;BME280;41132;47.162;9.470;2023-04-20T10:56:43;95904.13;;;8.25;99.24
55271;BME280;41132;47.162;9.470;2023-04-20T10:59:17;95897.56;;;8.21;97.96
55271;BME280;41132;47.162;9.470;2023-04-20T11:01:44;95894.75;;;8.41;100.00
55271;BME280;41132;47.162;9.470;2023-04-20T11:04:11;95877.31;;;8.49;99.00
55271;BME280;41132;47.162;9.470;2023-04-20T11:06:38;95888.72;;;8.48;95.04
55271;BME280;41132;47.162;9.470;2023-04-20T11:09:24;95885.00;;;8.25;100.00
55271;BME280;41132;47.162;9.470;2023-04-20T11:11:59;95880.75;;;8.24;100.00
55271;BME280;41132;47.162;9.470;2023-04-20T11:14:26;95875.84;;;8.21;100.00
55271;BME280;41132;47.162;9.470;2023-04-20T11:16:52;95870.16;;;7.99;100.00
55271;BME280;41132;47.162;9.470;2023-04-20T11:19:22;95858.44;;;7.77;100.00
55271;BME280;41132;47.162;9.470;2023-04-20T11:21:48;95866.16;;;7.87;100.00
55271;BME280;41132;47.162;9.470;2023-04-20T11:24:22;95865.34;;;7.86;100.00
55271;BME280;41132;47.162;9.470;2023-04-20T11:26:48;95882.19;;;7.92;100.00
55271;BME280;41132;47.162;9.470;2023-04-20T11:29:34;95879.59;;;7.92;100.00
55271;BME280;41132;47.162;9.470;2023-04-20T11:32:05;95865.63;;;7.75;100.00
55271;BME280;41132;47.162;9.470;2023-04-20T11:34:31;95873.75;;;7.72;100.00
55271;BME280;41132;47.162;9.470;2023-04-20T11:37:02;95865.75;;;7.73;100.00
55271;BME280;41132;47.162;9.470;2023-04-20T11:39:29;95875.34;;;7.47;100.00
55271;BME280;41132;47.162;9.470;2023-04-20T11:41:54;95859.19;;;7.43;100.00
55271;BME280;41132;47.162;9.470;2023-04-20T11:44:22;95850.94;;;7.56;100.00
55271;BME280;41132;47.162;9.470;2023-04-20T11:46:48;95857.50;;;7.60;100.00
55271;BME280;41132;47.162;9.470;2023-04-20T11:49:18;95870.28;;;7.63;100.00
55271;BME280;41132;47.162;9.470;2023-04-20T11:51:44;95861.81;;;7.69;100.00
55271;BME280;41132;47.162;9.470;2023-04-20T11:54:11;95872.50;;;7.58;100.00
55271;BME280;41132;47.162;9.470;2023-04-20T11:56:37;95860.50;;;7.65;100.00
55271;BME280;41132;47.162;9.470;2023-04-20T11:59:03;95855.31;;;7.73;100.00
55271;BME280;41132;47.162;9.470;2023-04-20T12:01:29;95872.31;;;7.78;100.00
55271;BME280;41132;47.162;9.470;2023-04-20T12:03:54;95878.09;;;7.89;100.00
55271;BME280;41132;47.162;9.470;2023-04-20T12:06:20;95861.84;;;7.51;100.00
55271;BME280;41132;47.162;9.470;2023-04-20T12:08:46;95868.06;;;7.50;100.00
55271;BME280;41132;47.162;9.470;2023-04-20T12:11:12;95893.56;;;7.57;100.00
55271;BME280;41132;47.162;9.470;2023-04-20T12:13:38;95890.44;;;7.35;100.00
55271;BME280;41132;47.162;9.470;2023-04-20T12:16:04;95853.31;;;7.23;100.00
55271;BME280;41132;47.162;9.470;2023-04-20T12:18:29;95887.25;;;7.41;100.00
55271;BME280;41132;47.162;9.470;2023-04-20T12:20:55;95874.88;;;7.25;100.00
55271;BME280;41132;47.162;9.470;2023-04-20T12:23:20;95891.25;;;7.36;100.00
55271;BME280;41132;47.162;9.470;2023-04-20T12:25:45;95880.22;;;7.42;100.00
55271;BME280;41132;47.162;9.470;2023-04-20T12:28:11;95870.81;;;7.49;100.00
55271;BME280;41132;47.162;9.470;2023-04-20T12:30:36;95879.41;;;7.41;100.00
55271;BME280;41132;47.162;9.470;2023-04-20T12:33:03;95901.91;;;7.60;100.00
55271;BME280;41132;47.162;9.470;2023-04-20T12:35:28;95895.88;;;7.60;100.00
55271;BME280;41132;47.162;9.470;2023-04-20T12:37:54;95876.81;;;7.23;100.00
55271;BME280;41132;47.162;9.470;2023-04-20T12:40:20;95900.66;;;7.28;100.00
55271;BME280;41132;47.162;9.470;2023-04-20T12:42:45;95892.59;;;7.22;100.00
55271;BME280;41132;47.162;9.470;2023-04-20T12:45:11;95914.81;;;7.44;100.00
55271;BME280;41132;47.162;9.470;2023-04-20T12:47:37;95885.63;;;7.22;100.00
55271;BME280;41132;47.162;9.470;2023-04-20T12:50:02;95909.53;;;7.36;100.00
55271;BME280;41132;47.162;9.470;2023-04-20T12:52:28;95902.34;;;7.56;100.00
55271;BME280;41132;47.162;9.470;2023-04-20T12:54:53;95889.28;;;7.56;100.00
55271;BME280;41132;47.162;9.470;2023-04-20T12:57:19;95904.44;;;7.70;100.00
55271;BME280;41132;47.162;9.470;2023-04-20T12:59:44;95905.25;;;7.70;100.00